Buritama, Brazil
Current Conditions -  °F | °C
As of 7:55 PM on Saturday 25 Oct 2014 (Local Time) from SBAU Reporting Station
Drizzle Drizzle  
Wind Chill: 72°   Ceiling: 2000
Heat Index: 72°   Visibility: 4mi
Dew Point: 66°   Wind: 6mph
Humidity: 83%   Direction: 140°SE
Pressure: 29.94"   Gusts: NA
Location:  21.07°S, 50.15°W
Report Text: SBAU 252155Z 14005KT 7000 -DZ SCT010 BKN020 OVC090 22/19 Q1014 RETS
Loading
Personal Weather Stations






























Interactive Weather Map
Tropical Storm Tracking
New forecast layout! Learn more

10-Day Weather Forecast

Advertisements
Track Severe Weather on mobile